sensor_id;sensor_type;location;lat;lon;timestamp;pressure;altitude;pressure_sealevel;temperature
18474;BMP180;30265;52.408;13.500;2022-09-21T00:06:02;102138.00;;;9.40
18474;BMP180;30265;52.408;13.500;2022-09-21T00:16:24;102134.00;;;9.50
18474;BMP180;30265;52.408;13.500;2022-09-21T00:26:47;102148.00;;;9.30
18474;BMP180;30265;52.408;13.500;2022-09-21T00:37:08;102146.00;;;9.50
18474;BMP180;30265;52.408;13.500;2022-09-21T00:47:34;102138.00;;;9.40
18474;BMP180;30265;52.408;13.500;2022-09-21T00:57:59;102146.00;;;9.40
18474;BMP180;30265;52.408;13.500;2022-09-21T01:08:25;102142.00;;;9.50
18474;BMP180;30265;52.408;13.500;2022-09-21T01:18:53;102152.00;;;9.30
18474;BMP180;30265;52.408;13.500;2022-09-21T01:29:23;102173.00;;;9.30
18474;BMP180;30265;52.408;13.500;2022-09-21T01:39:51;102169.00;;;9.50
18474;BMP180;30265;52.408;13.500;2022-09-21T01:50:16;102167.00;;;9.20
18474;BMP180;30265;52.408;13.500;2022-09-21T02:00:41;102175.00;;;9.30
18474;BMP180;30265;52.408;13.500;2022-09-21T02:11:06;102173.00;;;9.40
18474;BMP180;30265;52.408;13.500;2022-09-21T02:21:31;102175.00;;;9.30
18474;BMP180;30265;52.408;13.500;2022-09-21T02:32:00;102168.00;;;9.30
18474;BMP180;30265;52.408;13.500;2022-09-21T02:42:26;102171.00;;;9.50
18474;BMP180;30265;52.408;13.500;2022-09-21T02:52:51;102170.00;;;9.20
18474;BMP180;30265;52.408;13.500;2022-09-21T03:03:14;102188.00;;;8.70
18474;BMP180;30265;52.408;13.500;2022-09-21T03:13:38;102202.00;;;8.70
18474;BMP180;30265;52.408;13.500;2022-09-21T03:24:01;102202.00;;;8.80
18474;BMP180;30265;52.408;13.500;2022-09-21T03:34:24;102206.00;;;8.90
18474;BMP180;30265;52.408;13.500;2022-09-21T03:44:45;102202.00;;;8.90
18474;BMP180;30265;52.408;13.500;2022-09-21T03:55:08;102208.00;;;8.70
18474;BMP180;30265;52.408;13.500;2022-09-21T04:05:30;102212.00;;;8.80
18474;BMP180;30265;52.408;13.500;2022-09-21T04:15:53;102219.00;;;8.90
18474;BMP180;30265;52.408;13.500;2022-09-21T04:26:20;102217.00;;;9.00
18474;BMP180;30265;52.408;13.500;2022-09-21T04:36:44;102212.00;;;9.00
18474;BMP180;30265;52.408;13.500;2022-09-21T04:47:06;102215.00;;;9.10
18474;BMP180;30265;52.408;13.500;2022-09-21T04:57:31;102222.00;;;8.70
18474;BMP180;30265;52.408;13.500;2022-09-21T05:07:52;102232.00;;;8.50
18474;BMP180;30265;52.408;13.500;2022-09-21T05:18:15;102239.00;;;8.60
18474;BMP180;30265;52.408;13.500;2022-09-21T05:28:37;102251.00;;;8.40
18474;BMP180;30265;52.408;13.500;2022-09-21T05:39:01;102264.00;;;8.40
18474;BMP180;30265;52.408;13.500;2022-09-21T05:49:30;102272.00;;;8.50
18474;BMP180;30265;52.408;13.500;2022-09-21T06:00:03;102255.00;;;8.60
18474;BMP180;30265;52.408;13.500;2022-09-21T06:10:34;102266.00;;;8.90
18474;BMP180;30265;52.408;13.500;2022-09-21T06:20:57;102282.00;;;9.80
18474;BMP180;30265;52.408;13.500;2022-09-21T06:31:18;102275.00;;;10.40
18474;BMP180;30265;52.408;13.500;2022-09-21T06:41:41;102278.00;;;10.90
18474;BMP180;30265;52.408;13.500;2022-09-21T06:52:03;102288.00;;;11.10
18474;BMP180;30265;52.408;13.500;2022-09-21T07:02:26;102305.00;;;11.20
18474;BMP180;30265;52.408;13.500;2022-09-21T07:12:47;102301.00;;;11.40
18474;BMP180;30265;52.408;13.500;2022-09-21T07:23:14;102316.00;;;11.60
18474;BMP180;30265;52.408;13.500;2022-09-21T07:33:36;102310.00;;;12.30
18474;BMP180;30265;52.408;13.500;2022-09-21T07:43:58;102311.00;;;12.30
18474;BMP180;30265;52.408;13.500;2022-09-21T07:54:20;102311.00;;;13.10
18474;BMP180;30265;52.408;13.500;2022-09-21T08:04:43;102312.00;;;13.80
18474;BMP180;30265;52.408;13.500;2022-09-21T08:15:05;102329.00;;;13.70
18474;BMP180;30265;52.408;13.500;2022-09-21T08:25:45;102327.00;;;13.90
18474;BMP180;30265;52.408;13.500;2022-09-21T08:36:07;102322.00;;;13.60
18474;BMP180;30265;52.408;13.500;2022-09-21T08:46:31;102324.00;;;14.80
18474;BMP180;30265;52.408;13.500;2022-09-21T08:56:55;102340.00;;;14.80
18474;BMP180;30265;52.408;13.500;2022-09-21T09:07:42;102350.00;;;15.00
18474;BMP180;30265;52.408;13.500;2022-09-21T09:18:13;102346.00;;;15.50
18474;BMP180;30265;52.408;13.500;2022-09-21T09:28:41;102342.00;;;15.30
18474;BMP180;30265;52.408;13.500;2022-09-21T09:39:13;102325.00;;;16.50
18474;BMP180;30265;52.408;13.500;2022-09-21T09:49:43;102341.00;;;17.20
18474;BMP180;30265;52.408;13.500;2022-09-21T10:00:12;102353.00;;;18.30
18474;BMP180;30265;52.408;13.500;2022-09-21T10:10:39;102334.00;;;18.90
18474;BMP180;30265;52.408;13.500;2022-09-21T10:21:04;102346.00;;;17.70
18474;BMP180;30265;52.408;13.500;2022-09-21T10:31:28;102347.00;;;17.70
18474;BMP180;30265;52.408;13.500;2022-09-21T10:41:53;102350.00;;;18.40
18474;BMP180;30265;52.408;13.500;2022-09-21T10:52:20;102323.00;;;18.70
18474;BMP180;30265;52.408;13.500;2022-09-21T11:02:42;102335.00;;;18.60
18474;BMP180;30265;52.408;13.500;2022-09-21T11:13:22;102313.00;;;19.30
18474;BMP180;30265;52.408;13.500;2022-09-21T11:23:51;102292.00;;;20.80
18474;BMP180;30265;52.408;13.500;2022-09-21T11:45:39;102301.00;;;20.50
18474;BMP180;30265;52.408;13.500;2022-09-21T11:56:22;102293.00;;;20.60
18474;BMP180;30265;52.408;13.500;2022-09-21T12:06:57;102297.00;;;18.90
18474;BMP180;30265;52.408;13.500;2022-09-21T12:17:28;102310.00;;;17.40
18474;BMP180;30265;52.408;13.500;2022-09-21T12:27:53;102299.00;;;18.20
18474;BMP180;30265;52.408;13.500;2022-09-21T12:38:21;102266.00;;;19.90
18474;BMP180;30265;52.408;13.500;2022-09-21T12:48:46;102279.00;;;19.10
18474;BMP180;30265;52.408;13.500;2022-09-21T12:59:17;102279.00;;;18.60
18474;BMP180;30265;52.408;13.500;2022-09-21T13:09:45;102263.00;;;19.80
18474;BMP180;30265;52.408;13.500;2022-09-21T13:20:15;102258.00;;;20.00
18474;BMP180;30265;52.408;13.500;2022-09-21T13:30:40;102264.00;;;18.60
18474;BMP180;30265;52.408;13.500;2022-09-21T13:41:05;102262.00;;;19.40
18474;BMP180;30265;52.408;13.500;2022-09-21T13:52:07;102269.00;;;19.40
18474;BMP180;30265;52.408;13.500;2022-09-21T14:02:42;102266.00;;;18.50
18474;BMP180;30265;52.408;13.500;2022-09-21T14:13:24;102251.00;;;19.40
18474;BMP180;30265;52.408;13.500;2022-09-21T14:24:08;102248.00;;;17.60
18474;BMP180;30265;52.408;13.500;2022-09-21T14:34:33;102249.00;;;18.40
18474;BMP180;30265;52.408;13.500;2022-09-21T14:44:58;102234.00;;;18.20
18474;BMP180;30265;52.408;13.500;2022-09-21T14:55:30;102233.00;;;18.60
18474;BMP180;30265;52.408;13.500;2022-09-21T15:05:55;102227.00;;;18.60
18474;BMP180;30265;52.408;13.500;2022-09-21T15:16:33;102216.00;;;19.00
18474;BMP180;30265;52.408;13.500;2022-09-21T15:27:03;102213.00;;;19.40
18474;BMP180;30265;52.408;13.500;2022-09-21T15:37:34;102213.00;;;18.00
18474;BMP180;30265;52.408;13.500;2022-09-21T15:47:55;102229.00;;;18.60
18474;BMP180;30265;52.408;13.500;2022-09-21T15:58:29;102224.00;;;18.10
18474;BMP180;30265;52.408;13.500;2022-09-21T16:08:54;102221.00;;;18.30
18474;BMP180;30265;52.408;13.500;2022-09-21T16:19:17;102236.00;;;18.40
18474;BMP180;30265;52.408;13.500;2022-09-21T16:29:39;102235.00;;;17.80
18474;BMP180;30265;52.408;13.500;2022-09-21T16:40:04;102252.00;;;17.20
18474;BMP180;30265;52.408;13.500;2022-09-21T16:50:26;102250.00;;;16.80
18474;BMP180;30265;52.408;13.500;2022-09-21T17:00:51;102243.00;;;16.60
18474;BMP180;30265;52.408;13.500;2022-09-21T17:11:16;102252.00;;;16.20
18474;BMP180;30265;52.408;13.500;2022-09-21T17:21:41;102256.00;;;16.00
18474;BMP180;30265;52.408;13.500;2022-09-21T17:32:07;102258.00;;;15.70
18474;BMP180;30265;52.408;13.500;2022-09-21T17:42:33;102263.00;;;15.50
18474;BMP180;30265;52.408;13.500;2022-09-21T17:53:09;102269.00;;;15.20
18474;BMP180;30265;52.408;13.500;2022-09-21T18:03:56;102268.00;;;14.70
18474;BMP180;30265;52.408;13.500;2022-09-21T18:14:24;102277.00;;;14.10
18474;BMP180;30265;52.408;13.500;2022-09-21T18:24:51;102284.00;;;13.80
18474;BMP180;30265;52.408;13.500;2022-09-21T18:35:34;102273.00;;;13.10
18474;BMP180;30265;52.408;13.500;2022-09-21T18:46:01;102286.00;;;12.70
18474;BMP180;30265;52.408;13.500;2022-09-21T18:56:25;102292.00;;;12.40
18474;BMP180;30265;52.408;13.500;2022-09-21T19:06:55;102293.00;;;12.10
18474;BMP180;30265;52.408;13.500;2022-09-21T19:17:43;102286.00;;;12.00
18474;BMP180;30265;52.408;13.500;2022-09-21T19:28:27;102299.00;;;12.20
18474;BMP180;30265;52.408;13.500;2022-09-21T19:38:50;102290.00;;;12.40
18474;BMP180;30265;52.408;13.500;2022-09-21T19:49:15;102296.00;;;12.40
18474;BMP180;30265;52.408;13.500;2022-09-21T19:59:38;102296.00;;;12.10
18474;BMP180;30265;52.408;13.500;2022-09-21T20:10:34;102292.00;;;11.60
18474;BMP180;30265;52.408;13.500;2022-09-21T20:20:58;102299.00;;;11.20
18474;BMP180;30265;52.408;13.500;2022-09-21T20:31:23;102294.00;;;11.60
18474;BMP180;30265;52.408;13.500;2022-09-21T20:41:45;102296.00;;;11.40
18474;BMP180;30265;52.408;13.500;2022-09-21T20:52:08;102303.00;;;11.30
18474;BMP180;30265;52.408;13.500;2022-09-21T21:02:30;102296.00;;;11.80
18474;BMP180;30265;52.408;13.500;2022-09-21T21:12:54;102303.00;;;11.70
18474;BMP180;30265;52.408;13.500;2022-09-21T21:23:17;102314.00;;;11.90
18474;BMP180;30265;52.408;13.500;2022-09-21T21:33:40;102313.00;;;12.40
18474;BMP180;30265;52.408;13.500;2022-09-21T21:44:02;102295.00;;;12.40
18474;BMP180;30265;52.408;13.500;2022-09-21T21:54:25;102296.00;;;12.20
18474;BMP180;30265;52.408;13.500;2022-09-21T22:04:47;102295.00;;;12.30
18474;BMP180;30265;52.408;13.500;2022-09-21T22:15:10;102292.00;;;12.30
18474;BMP180;30265;52.408;13.500;2022-09-21T22:25:31;102288.00;;;12.30
18474;BMP180;30265;52.408;13.500;2022-09-21T22:36:00;102284.00;;;12.10
18474;BMP180;30265;52.408;13.500;2022-09-21T22:46:23;102293.00;;;12.00
18474;BMP180;30265;52.408;13.500;2022-09-21T22:56:52;102288.00;;;11.80
18474;BMP180;30265;52.408;13.500;2022-09-21T23:07:14;102280.00;;;11.80
18474;BMP180;30265;52.408;13.500;2022-09-21T23:17:37;102289.00;;;12.20
18474;BMP180;30265;52.408;13.500;2022-09-21T23:27:59;102290.00;;;12.10
18474;BMP180;30265;52.408;13.500;2022-09-21T23:38:22;102287.00;;;12.30
18474;BMP180;30265;52.408;13.500;2022-09-21T23:48:44;102284.00;;;12.40
18474;BMP180;30265;52.408;13.500;2022-09-21T23:59:08;102265.00;;;12.30
